Back to Top

Language: 

My Weather Underground Personal Weather Station Historical Data with Graphs...

Delerius Weather Station Historical Data
Daily Summary for May 4, 2017 Units:  English    Metric   Both
« Previous Day
Next Day »
Daily Weekly Monthly Yearly Custom
  High: Low: Average:
Temperature: 59.4 °F 43.5 °F 51.3 °F
Dew Point: 43.7 °F 34.2 °F 40.2 °F
Humidity: 88 % 39 % 68 %
Wind Speed: 14.0 mph 1.0 mph 7.4 mph
Wind Gust: 29.0 mph - -
Wind:- - ENE
Pressure: 30.38 in 30.30 in -
Precipitation: 0.00 in    
Historical Graphs
 
 
Tabular Data for May 4, 2017
Time Temperature Dew Point Pressure Wind Wind Speed Wind Gust Humidity Rainfall Rate (Hourly) solar Conditions
00:04 47.1 °F 42.8 °F 30.32 in NNE 6.0 mph 13.0 mph 85 % 0.00 in 0 W/m2
00:09 47.1 °F 42.8 °F 30.32 in NNE 6.0 mph 13.0 mph 85 % 0.00 in 0 W/m2
00:14 47.1 °F 42.8 °F 30.32 in NNE 6.0 mph 11.0 mph 85 % 0.00 in 0 W/m2
00:19 47.1 °F 43.1 °F 30.32 in NNE 6.0 mph 13.0 mph 86 % 0.00 in 0 W/m2
00:24 47.1 °F 43.1 °F 30.32 in NNE 7.0 mph 15.0 mph 86 % 0.00 in 0 W/m2
00:29 47.1 °F 43.1 °F 30.32 in NE 6.0 mph 15.0 mph 86 % 0.00 in 0 W/m2
00:34 47.1 °F 43.1 °F 30.32 in NNE 5.0 mph 13.0 mph 86 % 0.00 in 0 W/m2
00:39 47.1 °F 43.1 °F 30.32 in NE 6.0 mph 13.0 mph 86 % 0.00 in 0 W/m2
00:44 47.1 °F 42.8 °F 30.32 in NNE 5.0 mph 12.0 mph 85 % 0.00 in 0 W/m2
00:49 47.3 °F 43.3 °F 30.32 in NE 4.0 mph 10.0 mph 86 % 0.00 in 0 W/m2
00:54 47.3 °F 43.3 °F 30.32 in ENE 3.0 mph 10.0 mph 86 % 0.00 in 0 W/m2
00:59 47.3 °F 43.3 °F 30.32 in NE 5.0 mph 12.0 mph 86 % 0.00 in 0 W/m2
01:04 47.3 °F 43.3 °F 30.32 in NE 5.0 mph 12.0 mph 86 % 0.00 in 0 W/m2
01:09 47.3 °F 43.0 °F 30.31 in NE 3.0 mph 9.0 mph 85 % 0.00 in 0 W/m2
01:14 47.3 °F 43.0 °F 30.31 in NE 4.0 mph 11.0 mph 85 % 0.00 in 0 W/m2
01:19 47.3 °F 43.0 °F 30.31 in NNE 6.0 mph 14.0 mph 85 % 0.00 in 0 W/m2
01:24 47.3 °F 43.0 °F 30.31 in NNE 6.0 mph 14.0 mph 85 % 0.00 in 0 W/m2
01:29 47.3 °F 43.0 °F 30.31 in NNE 7.0 mph 13.0 mph 85 % 0.00 in 0 W/m2
01:34 47.3 °F 43.3 °F 30.31 in NNE 5.0 mph 13.0 mph 86 % 0.00 in 0 W/m2
01:39 47.3 °F 43.3 °F 30.31 in NNE 5.0 mph 11.0 mph 86 % 0.00 in 0 W/m2
01:44 47.3 °F 43.3 °F 30.31 in NNE 6.0 mph 11.0 mph 86 % 0.00 in 0 W/m2
01:49 47.3 °F 43.3 °F 30.31 in NE 5.0 mph 13.0 mph 86 % 0.00 in 0 W/m2
01:54 47.3 °F 43.3 °F 30.31 in NNE 4.0 mph 13.0 mph 86 % 0.00 in 0 W/m2
01:59 47.3 °F 43.3 °F 30.31 in NNE 3.0 mph 12.0 mph 86 % 0.00 in 0 W/m2
02:04 47.3 °F 43.3 °F 30.31 in NNE 3.0 mph 10.0 mph 86 % 0.00 in 0 W/m2
02:09 47.3 °F 43.3 °F 30.31 in NNE 5.0 mph 11.0 mph 86 % 0.00 in 0 W/m2
02:14 47.3 °F 43.3 °F 30.31 in NNE 5.0 mph 11.0 mph 86 % 0.00 in 0 W/m2
02:19 47.3 °F 43.3 °F 30.30 in NNE 5.0 mph 12.0 mph 86 % 0.00 in 0 W/m2
02:24 47.3 °F 43.3 °F 30.31 in NNE 5.0 mph 12.0 mph 86 % 0.00 in 0 W/m2
02:29 47.3 °F 43.3 °F 30.30 in NNE 6.0 mph 12.0 mph 86 % 0.00 in 0 W/m2
02:34 47.3 °F 43.3 °F 30.30 in NNE 5.0 mph 12.0 mph 86 % 0.00 in 0 W/m2
02:39 47.5 °F 43.5 °F 30.30 in NNE 5.0 mph 14.0 mph 86 % 0.00 in 0 W/m2
02:44 47.5 °F 43.5 °F 30.30 in NNE 6.0 mph 14.0 mph 86 % 0.00 in 0 W/m2
02:50 47.5 °F 43.5 °F 30.30 in NNE 5.0 mph 12.0 mph 86 % 0.00 in 0 W/m2
02:55 47.5 °F 43.5 °F 30.30 in NNE 6.0 mph 14.0 mph 86 % 0.00 in 0 W/m2
03:00 47.5 °F 43.5 °F 30.30 in NNE 6.0 mph 14.0 mph 86 % 0.00 in 0 W/m2
03:05 47.5 °F 43.5 °F 30.30 in NNE 6.0 mph 12.0 mph 86 % 0.00 in 0 W/m2
03:10 47.5 °F 43.5 °F 30.30 in NNE 4.0 mph 12.0 mph 86 % 0.00 in 0 W/m2
03:15 47.5 °F 43.5 °F 30.30 in NNE 4.0 mph 9.0 mph 86 % 0.00 in 0 W/m2
03:20 47.7 °F 43.7 °F 30.30 in NNE 5.0 mph 11.0 mph 86 % 0.00 in 0 W/m2
03:25 47.7 °F 43.7 °F 30.30 in NNE 6.0 mph 11.0 mph 86 % 0.00 in 0 W/m2
03:30 47.7 °F 43.7 °F 30.30 in NNE 6.0 mph 11.0 mph 86 % 0.00 in 0 W/m2
03:35 47.7 °F 43.7 °F 30.30 in NNE 6.0 mph 11.0 mph 86 % 0.00 in 0 W/m2
03:40 47.5 °F 43.5 °F 30.30 in NNE 7.0 mph 11.0 mph 86 % 0.00 in 0 W/m2
03:45 47.5 °F 43.5 °F 30.30 in NNE 7.0 mph 12.0 mph 86 % 0.00 in 0 W/m2
03:50 47.5 °F 43.5 °F 30.30 in NNE 6.0 mph 13.0 mph 86 % 0.00 in 0 W/m2
03:55 47.5 °F 43.5 °F 30.30 in NNE 7.0 mph 15.0 mph 86 % 0.00 in 0 W/m2
04:00 47.5 °F 43.5 °F 30.30 in NNE 8.0 mph 16.0 mph 86 % 0.00 in 0 W/m2
04:06 47.3 °F 43.3 °F 30.30 in NNE 9.0 mph 16.0 mph 86 % 0.00 in 0 W/m2
04:11 47.1 °F 43.1 °F 30.30 in NNE 8.0 mph 15.0 mph 86 % 0.00 in 0 W/m2
04:16 46.9 °F 43.0 °F 30.30 in NNE 7.0 mph 15.0 mph 86 % 0.00 in 0 W/m2
04:21 46.8 °F 42.8 °F 30.30 in NNE 7.0 mph 14.0 mph 86 % 0.00 in 0 W/m2
04:26 46.6 °F 42.9 °F 30.30 in NNE 6.0 mph 14.0 mph 87 % 0.00 in 0 W/m2
04:31 46.4 °F 42.7 °F 30.30 in NNE 6.0 mph 14.0 mph 87 % 0.00 in 0 W/m2
04:36 46.4 °F 42.7 °F 30.30 in NNE 6.0 mph 14.0 mph 87 % 0.00 in 0 W/m2
04:41 46.2 °F 42.6 °F 30.30 in NNE 6.0 mph 14.0 mph 87 % 0.00 in 0 W/m2
04:46 46.2 °F 42.6 °F 30.31 in NNE 5.0 mph 11.0 mph 87 % 0.00 in 0 W/m2
04:51 46.2 °F 42.9 °F 30.31 in NNE 6.0 mph 13.0 mph 88 % 0.00 in 0 W/m2
04:56 46.2 °F 42.9 °F 30.31 in NNE 6.0 mph 13.0 mph 88 % 0.00 in 0 W/m2
05:01 46.0 °F 42.7 °F 30.31 in North 6.0 mph 12.0 mph 88 % 0.00 in 0 W/m2
05:06 46.0 °F 42.7 °F 30.31 in North 6.0 mph 12.0 mph 88 % 0.00 in 0 W/m2
05:11 46.0 °F 42.7 °F 30.31 in North 5.0 mph 10.0 mph 88 % 0.00 in 0 W/m2
05:16 46.0 °F 42.7 °F 30.31 in NNE 5.0 mph 10.0 mph 88 % 0.00 in 0 W/m2
05:21 46.0 °F 42.7 °F 30.31 in NNE 6.0 mph 11.0 mph 88 % 0.00 in 0 W/m2
05:26 46.0 °F 42.7 °F 30.31 in NNE 6.0 mph 11.0 mph 88 % 0.00 in 5 W/m2
05:31 46.0 °F 42.7 °F 30.31 in NNE 5.0 mph 11.0 mph 88 % 0.00 in 9 W/m2
05:36 46.0 °F 42.7 °F 30.31 in NNE 5.0 mph 11.0 mph 88 % 0.00 in 11 W/m2
05:41 46.0 °F 42.7 °F 30.31 in NNE 5.0 mph 11.0 mph 88 % 0.00 in 12 W/m2
05:46 46.0 °F 42.7 °F 30.31 in NNE 5.0 mph 10.0 mph 88 % 0.00 in 16 W/m2
05:51 46.0 °F 42.7 °F 30.30 in NNE 4.0 mph 9.0 mph 88 % 0.00 in 19 W/m2
05:56 46.2 °F 42.9 °F 30.30 in NNE 4.0 mph 7.0 mph 88 % 0.00 in 25 W/m2
06:01 46.2 °F 42.9 °F 30.30 in NNE 4.0 mph 8.0 mph 88 % 0.00 in 30 W/m2
06:06 46.2 °F 42.6 °F 30.30 in NNE 4.0 mph 8.0 mph 87 % 0.00 in 37 W/m2
06:11 46.6 °F 42.9 °F 30.30 in NNE 3.0 mph 8.0 mph 87 % 0.00 in 44 W/m2
06:16 46.6 °F 42.6 °F 30.30 in NNE 2.0 mph 7.0 mph 86 % 0.00 in 51 W/m2
06:21 46.8 °F 42.8 °F 30.30 in NNE 1.0 mph 7.0 mph 86 % 0.00 in 58 W/m2
06:26 46.9 °F 42.7 °F 30.30 in NNE 3.0 mph 9.0 mph 85 % 0.00 in 54 W/m2
06:31 47.1 °F 42.8 °F 30.30 in NE 3.0 mph 9.0 mph 85 % 0.00 in 54 W/m2
06:36 47.1 °F 42.5 °F 30.30 in NE 2.0 mph 6.0 mph 84 % 0.00 in 54 W/m2
06:42 47.3 °F 42.7 °F 30.30 in NE 2.0 mph 6.0 mph 84 % 0.00 in 60 W/m2
06:47 47.5 °F 42.6 °F 30.30 in NE 1.0 mph 7.0 mph 83 % 0.00 in 65 W/m2
06:52 47.7 °F 42.4 °F 30.30 in NE 2.0 mph 9.0 mph 82 % 0.00 in 72 W/m2
06:57 47.7 °F 42.1 °F 30.30 in NE 4.0 mph 9.0 mph 81 % 0.00 in 77 W/m2
07:02 47.8 °F 42.3 °F 30.30 in NE 4.0 mph 10.0 mph 81 % 0.00 in 84 W/m2
07:07 47.8 °F 42.0 °F 30.30 in NE 4.0 mph 10.0 mph 80 % 0.00 in 84 W/m2
07:13 48.0 °F 41.8 °F 30.30 in NE 4.0 mph 10.0 mph 79 % 0.00 in 88 W/m2
07:18 48.2 °F 42.0 °F 30.30 in NE 6.0 mph 12.0 mph 79 % 0.00 in 97 W/m2
07:23 48.4 °F 41.8 °F 30.30 in NE 6.0 mph 12.0 mph 78 % 0.00 in 97 W/m2
07:28 48.6 °F 42.0 °F 30.30 in ENE 5.0 mph 11.0 mph 78 % 0.00 in 98 W/m2
07:33 48.6 °F 41.7 °F 30.30 in ENE 4.0 mph 10.0 mph 77 % 0.00 in 97 W/m2
07:38 48.7 °F 41.5 °F 30.30 in ENE 4.0 mph 10.0 mph 76 % 0.00 in 109 W/m2
07:43 48.9 °F 41.3 °F 30.30 in NE 5.0 mph 11.0 mph 75 % 0.00 in 120 W/m2
07:48 49.3 °F 41.7 °F 30.30 in NE 5.0 mph 11.0 mph 75 % 0.00 in 125 W/m2
07:53 49.5 °F 41.5 °F 30.31 in NE 5.0 mph 11.0 mph 74 % 0.00 in 123 W/m2
07:58 49.6 °F 41.3 °F 30.31 in ENE 6.0 mph 18.0 mph 73 % 0.00 in 128 W/m2
08:03 49.8 °F 41.2 °F 30.31 in ENE 7.0 mph 18.0 mph 72 % 0.00 in 134 W/m2
08:08 50.0 °F 41.0 °F 30.31 in ENE 8.0 mph 15.0 mph 71 % 0.00 in 148 W/m2
08:13 50.2 °F 40.8 °F 30.31 in ENE 7.0 mph 14.0 mph 70 % 0.00 in 156 W/m2
08:18 50.4 °F 40.6 °F 30.31 in ENE 7.0 mph 14.0 mph 69 % 0.00 in 156 W/m2
08:23 50.5 °F 40.4 °F 30.31 in ENE 6.0 mph 13.0 mph 68 % 0.00 in 151 W/m2
08:28 50.7 °F 40.5 °F 30.31 in ENE 6.0 mph 15.0 mph 68 % 0.00 in 186 W/m2
08:33 51.1 °F 40.9 °F 30.31 in ENE 7.0 mph 15.0 mph 68 % 0.00 in 185 W/m2
08:38 51.1 °F 40.5 °F 30.31 in ENE 8.0 mph 15.0 mph 67 % 0.00 in 195 W/m2
08:43 51.3 °F 40.7 °F 30.31 in ENE 9.0 mph 16.0 mph 67 % 0.00 in 216 W/m2
08:48 51.4 °F 40.8 °F 30.31 in ENE 8.0 mph 16.0 mph 67 % 0.00 in 230 W/m2
08:53 51.6 °F 41.4 °F 30.31 in ENE 7.0 mph 14.0 mph 68 % 0.00 in 214 W/m2
08:58 51.8 °F 40.8 °F 30.31 in ENE 6.0 mph 12.0 mph 66 % 0.00 in 221 W/m2
09:03 52.0 °F 40.6 °F 30.31 in ENE 7.0 mph 19.0 mph 65 % 0.00 in 209 W/m2
09:08 52.0 °F 40.6 °F 30.31 in ENE 8.0 mph 19.0 mph 65 % 0.00 in 209 W/m2
09:13 52.2 °F 40.7 °F 30.31 in ENE 8.0 mph 15.0 mph 65 % 0.00 in 209 W/m2
09:18 52.2 °F 40.3 °F 30.31 in ENE 8.0 mph 15.0 mph 64 % 0.00 in 200 W/m2
09:23 52.3 °F 40.5 °F 30.31 in ENE 8.0 mph 14.0 mph 64 % 0.00 in 204 W/m2
09:28 52.3 °F 40.1 °F 30.31 in ENE 8.0 mph 14.0 mph 63 % 0.00 in 281 W/m2
09:33 52.5 °F 39.9 °F 30.31 in ENE 7.0 mph 15.0 mph 62 % 0.00 in 362 W/m2
09:38 52.9 °F 39.8 °F 30.31 in ENE 8.0 mph 15.0 mph 61 % 0.00 in 396 W/m2
09:43 53.4 °F 40.3 °F 30.31 in ENE 8.0 mph 15.0 mph 61 % 0.00 in 517 W/m2
09:48 54.0 °F 39.9 °F 30.31 in ENE 8.0 mph 16.0 mph 59 % 0.00 in 425 W/m2
09:53 54.3 °F 39.4 °F 30.31 in ENE 10.0 mph 23.0 mph 57 % 0.00 in 401 W/m2
09:58 54.9 °F 39.0 °F 30.31 in ENE 12.0 mph 23.0 mph 55 % 0.00 in 731 W/m2
10:03 55.4 °F 39.0 °F 30.31 in ENE 12.0 mph 22.0 mph 54 % 0.00 in 712 W/m2
10:09 56.1 °F 38.7 °F 30.31 in ENE 12.0 mph 23.0 mph 52 % 0.00 in 714 W/m2
10:14 56.3 °F 38.4 °F 30.31 in ENE 12.0 mph 26.0 mph 51 % 0.00 in 745 W/m2
10:19 56.5 °F 38.6 °F 30.31 in ENE 11.0 mph 26.0 mph 51 % 0.00 in 738 W/m2
10:24 56.8 °F 38.4 °F 30.31 in East 10.0 mph 21.0 mph 50 % 0.00 in 737 W/m2
10:29 57.2 °F 39.2 °F 30.30 in ENE 10.0 mph 24.0 mph 51 % 0.00 in 751 W/m2
10:34 57.2 °F 37.7 °F 30.31 in ENE 11.0 mph 24.0 mph 48 % 0.00 in 756 W/m2
10:39 57.4 °F 37.8 °F 30.31 in ENE 10.0 mph 21.0 mph 48 % 0.00 in 619 W/m2
10:44 57.4 °F 38.4 °F 30.31 in ENE 8.0 mph 16.0 mph 49 % 0.00 in 510 W/m2
10:49 57.2 °F 37.7 °F 30.31 in ENE 9.0 mph 27.0 mph 48 % 0.00 in 527 W/m2
10:54 56.7 °F 38.2 °F 30.31 in ENE 12.0 mph 27.0 mph 50 % 0.00 in 860 W/m2
10:59 57.4 °F 38.9 °F 30.30 in ENE 11.0 mph 22.0 mph 50 % 0.00 in 780 W/m2
11:04 58.3 °F 39.2 °F 30.31 in East 9.0 mph 22.0 mph 49 % 0.00 in 770 W/m2
11:09 58.3 °F 38.7 °F 30.30 in ENE 10.0 mph 20.0 mph 48 % 0.00 in 777 W/m2
11:14 58.5 °F 38.3 °F 30.31 in East 11.0 mph 21.0 mph 47 % 0.00 in 788 W/m2
11:19 58.6 °F 37.9 °F 30.30 in East 11.0 mph 21.0 mph 46 % 0.00 in 791 W/m2
11:24 58.8 °F 38.1 °F 30.30 in East 11.0 mph 20.0 mph 46 % 0.00 in 803 W/m2
11:29 59.4 °F 38.6 °F 30.30 in ENE 9.0 mph 19.0 mph 46 % 0.00 in 812 W/m2
11:34 59.2 °F 37.3 °F 30.31 in ENE 11.0 mph 25.0 mph 44 % 0.00 in 809 W/m2
11:39 58.8 °F 37.5 °F 30.30 in ENE 12.0 mph 25.0 mph 45 % 0.00 in 844 W/m2
11:44 58.8 °F 38.1 °F 30.30 in East 11.0 mph 24.0 mph 46 % 0.00 in 849 W/m2
11:49 59.0 °F 37.7 °F 30.31 in ENE 11.0 mph 19.0 mph 45 % 0.00 in 842 W/m2
11:54 59.0 °F 38.2 °F 30.31 in ENE 10.0 mph 23.0 mph 46 % 0.00 in 860 W/m2
11:59 59.2 °F 36.7 °F 30.30 in ENE 12.0 mph 29.0 mph 43 % 0.00 in 868 W/m2
12:04 58.6 °F 36.8 °F 30.31 in ENE 14.0 mph 29.0 mph 44 % 0.00 in 844 W/m2
12:09 59.0 °F 37.7 °F 30.31 in ENE 12.0 mph 25.0 mph 45 % 0.00 in 846 W/m2
12:14 58.8 °F 36.9 °F 30.31 in ENE 12.0 mph 27.0 mph 44 % 0.00 in 851 W/m2
12:19 58.8 °F 36.4 °F 30.31 in ENE 13.0 mph 27.0 mph 43 % 0.00 in 858 W/m2
12:24 59.0 °F 35.9 °F 30.31 in ENE 13.0 mph 24.0 mph 42 % 0.00 in 837 W/m2
12:29 58.8 °F 36.4 °F 30.31 in ENE 13.0 mph 24.0 mph 43 % 0.00 in 849 W/m2
12:34 58.8 °F 35.2 °F 30.31 in ENE 13.0 mph 26.0 mph 41 % 0.00 in 870 W/m2
12:39 58.8 °F 34.5 °F 30.31 in ENE 12.0 mph 27.0 mph 40 % 0.00 in 868 W/m2
12:44 58.8 °F 35.8 °F 30.31 in East 12.0 mph 27.0 mph 42 % 0.00 in 877 W/m2
12:50 59.0 °F 34.7 °F 30.31 in East 11.0 mph 22.0 mph 40 % 0.00 in 884 W/m2
12:55 59.2 °F 34.2 °F 30.31 in East 11.0 mph 23.0 mph 39 % 0.00 in 882 W/m2
13:00 59.2 °F 34.9 °F 30.31 in East 11.0 mph 25.0 mph 40 % 0.00 in 847 W/m2
13:05 59.0 °F 35.3 °F 30.31 in East 11.0 mph 25.0 mph 41 % 0.00 in 840 W/m2
13:10 58.6 °F 34.4 °F 30.31 in East 12.0 mph 23.0 mph 40 % 0.00 in 860 W/m2
13:11 58.6 °F 35.0 °F 30.31 in East 12.0 mph 23.0 mph 41 % 0.00 in 863 W/m2
13:16 58.6 °F 35.0 °F 30.31 in East 11.0 mph 25.0 mph 41 % 0.00 in 870 W/m2
13:21 58.3 °F 34.7 °F 30.31 in ENE 12.0 mph 26.0 mph 41 % 0.00 in 872 W/m2
13:26 58.3 °F 36.4 °F 30.30 in ENE 11.0 mph 26.0 mph 44 % 0.00 in 868 W/m2
13:31 58.3 °F 35.3 °F 30.30 in East 11.0 mph 21.0 mph 42 % 0.00 in 865 W/m2
13:36 58.3 °F 36.4 °F 30.30 in East 12.0 mph 24.0 mph 44 % 0.00 in 853 W/m2
13:41 58.1 °F 35.7 °F 30.31 in East 13.0 mph 26.0 mph 43 % 0.00 in 858 W/m2
13:46 58.3 °F 35.9 °F 30.31 in ENE 12.0 mph 26.0 mph 43 % 0.00 in 861 W/m2
13:52 58.1 °F 36.3 °F 30.31 in ENE 11.0 mph 26.0 mph 44 % 0.00 in 853 W/m2
13:57 58.5 °F 36.6 °F 30.31 in East 11.0 mph 26.0 mph 44 % 0.00 in 849 W/m2
14:02 58.6 °F 36.8 °F 30.31 in East 11.0 mph 21.0 mph 44 % 0.00 in 847 W/m2
14:07 58.3 °F 36.4 °F 30.31 in East 12.0 mph 21.0 mph 44 % 0.00 in 840 W/m2
14:12 58.5 °F 36.6 °F 30.31 in ENE 11.0 mph 19.0 mph 44 % 0.00 in 830 W/m2
14:17 58.3 °F 37.0 °F 30.31 in ENE 11.0 mph 23.0 mph 45 % 0.00 in 833 W/m2
14:22 58.3 °F 35.9 °F 30.31 in ENE 11.0 mph 25.0 mph 43 % 0.00 in 830 W/m2
14:27 58.1 °F 36.9 °F 30.31 in ENE 11.0 mph 25.0 mph 45 % 0.00 in 823 W/m2
14:32 58.5 °F 37.2 °F 30.31 in East 10.0 mph 25.0 mph 45 % 0.00 in 824 W/m2
14:37 58.3 °F 35.9 °F 30.31 in ENE 10.0 mph 23.0 mph 43 % 0.00 in 795 W/m2
14:42 58.3 °F 35.9 °F 30.31 in ENE 11.0 mph 23.0 mph 43 % 0.00 in 800 W/m2
14:47 57.9 °F 36.1 °F 30.31 in ENE 11.0 mph 20.0 mph 44 % 0.00 in 800 W/m2
14:52 57.9 °F 36.1 °F 30.30 in ENE 11.0 mph 25.0 mph 44 % 0.00 in 786 W/m2
14:57 58.3 °F 36.4 °F 30.30 in ENE 10.0 mph 25.0 mph 44 % 0.00 in 780 W/m2
15:02 58.6 °F 36.2 °F 30.30 in ENE 9.0 mph 19.0 mph 43 % 0.00 in 770 W/m2
15:07 58.6 °F 35.6 °F 30.30 in ENE 9.0 mph 21.0 mph 42 % 0.00 in 761 W/m2
15:12 58.3 °F 35.9 °F 30.31 in ENE 12.0 mph 23.0 mph 43 % 0.00 in 759 W/m2
15:17 58.1 °F 36.3 °F 30.30 in ENE 12.0 mph 23.0 mph 44 % 0.00 in 747 W/m2
15:22 58.5 °F 37.7 °F 30.30 in ENE 10.0 mph 19.0 mph 46 % 0.00 in 731 W/m2
15:27 58.3 °F 37.6 °F 30.30 in East 10.0 mph 21.0 mph 46 % 0.00 in 731 W/m2
15:32 58.5 °F 38.8 °F 30.30 in ENE 9.0 mph 21.0 mph 48 % 0.00 in 717 W/m2
15:37 58.3 °F 38.7 °F 30.30 in ENE 9.0 mph 25.0 mph 48 % 0.00 in 708 W/m2
15:42 58.3 °F 39.2 °F 30.30 in ENE 8.0 mph 25.0 mph 49 % 0.00 in 705 W/m2
15:47 58.1 °F 39.0 °F 30.30 in East 8.0 mph 19.0 mph 49 % 0.00 in 373 W/m2
15:52 57.9 °F 37.8 °F 30.30 in East 9.0 mph 19.0 mph 47 % 0.00 in 680 W/m2
15:57 57.7 °F 38.2 °F 30.30 in East 10.0 mph 21.0 mph 48 % 0.00 in 675 W/m2
16:02 57.6 °F 39.6 °F 30.30 in ENE 11.0 mph 21.0 mph 51 % 0.00 in 661 W/m2
16:07 57.7 °F 39.7 °F 30.30 in East 10.0 mph 18.0 mph 51 % 0.00 in 624 W/m2
16:08 57.7 °F 39.7 °F 30.30 in East 9.0 mph 18.0 mph 51 % 0.00 in 624 W/m2
16:13 57.2 °F 38.2 °F 30.30 in East 10.0 mph 23.0 mph 49 % 0.00 in 601 W/m2
16:18 56.8 °F 38.4 °F 30.30 in ENE 12.0 mph 23.0 mph 50 % 0.00 in 633 W/m2
16:23 56.7 °F 38.2 °F 30.30 in ENE 12.0 mph 24.0 mph 50 % 0.00 in 619 W/m2
16:28 56.7 °F 38.2 °F 30.30 in ENE 12.0 mph 24.0 mph 50 % 0.00 in 608 W/m2
16:33 56.7 °F 38.2 °F 30.30 in ENE 10.0 mph 22.0 mph 50 % 0.00 in 591 W/m2
16:38 56.7 °F 38.2 °F 30.30 in East 10.0 mph 21.0 mph 50 % 0.00 in 564 W/m2
16:43 56.8 °F 38.4 °F 30.30 in East 9.0 mph 21.0 mph 50 % 0.00 in 564 W/m2
16:48 56.8 °F 37.9 °F 30.30 in ENE 10.0 mph 18.0 mph 49 % 0.00 in 545 W/m2
16:53 56.5 °F 38.1 °F 30.30 in ENE 10.0 mph 19.0 mph 50 % 0.00 in 538 W/m2
16:58 56.7 °F 38.2 °F 30.30 in ENE 9.0 mph 19.0 mph 50 % 0.00 in 522 W/m2
17:03 56.8 °F 37.9 °F 30.30 in ENE 8.0 mph 19.0 mph 49 % 0.00 in 515 W/m2
17:08 56.7 °F 38.2 °F 30.30 in East 9.0 mph 19.0 mph 50 % 0.00 in 503 W/m2
17:14 56.3 °F 36.3 °F 30.30 in East 10.0 mph 19.0 mph 47 % 0.00 in 494 W/m2
17:19 55.9 °F 36.0 °F 30.30 in East 10.0 mph 19.0 mph 47 % 0.00 in 475 W/m2
17:24 55.8 °F 36.9 °F 30.30 in East 10.0 mph 19.0 mph 49 % 0.00 in 485 W/m2
17:29 55.8 °F 37.9 °F 30.30 in East 10.0 mph 19.0 mph 51 % 0.00 in 478 W/m2
17:34 55.9 °F 38.1 °F 30.30 in East 10.0 mph 19.0 mph 51 % 0.00 in 483 W/m2
17:39 55.8 °F 37.9 °F 30.30 in East 10.0 mph 20.0 mph 51 % 0.00 in 476 W/m2
17:44 55.6 °F 38.7 °F 30.30 in ENE 10.0 mph 20.0 mph 53 % 0.00 in 403 W/m2
17:49 55.6 °F 38.7 °F 30.31 in ENE 10.0 mph 19.0 mph 53 % 0.00 in 366 W/m2
17:54 55.2 °F 38.4 °F 30.31 in ENE 10.0 mph 20.0 mph 53 % 0.00 in 341 W/m2
17:59 54.9 °F 39.0 °F 30.31 in ENE 10.0 mph 20.0 mph 55 % 0.00 in 274 W/m2
18:04 54.7 °F 38.8 °F 30.31 in ENE 10.0 mph 20.0 mph 55 % 0.00 in 267 W/m2
18:09 54.3 °F 39.4 °F 30.31 in East 9.0 mph 15.0 mph 57 % 0.00 in 220 W/m2
18:14 54.3 °F 40.3 °F 30.31 in ENE 7.0 mph 14.0 mph 59 % 0.00 in 199 W/m2
18:19 54.1 °F 40.6 °F 30.32 in ENE 8.0 mph 15.0 mph 60 % 0.00 in 163 W/m2
18:24 53.8 °F 41.1 °F 30.32 in ENE 8.0 mph 15.0 mph 62 % 0.00 in 216 W/m2
18:29 53.4 °F 40.7 °F 30.32 in ENE 8.0 mph 20.0 mph 62 % 0.00 in 176 W/m2
18:34 53.1 °F 40.8 °F 30.32 in ENE 9.0 mph 20.0 mph 63 % 0.00 in 139 W/m2
18:39 52.5 °F 40.7 °F 30.32 in ENE 9.0 mph 19.0 mph 64 % 0.00 in 130 W/m2
18:44 52.3 °F 40.9 °F 30.33 in ENE 8.0 mph 20.0 mph 65 % 0.00 in 181 W/m2
18:49 52.2 °F 41.1 °F 30.33 in ENE 8.0 mph 20.0 mph 66 % 0.00 in 223 W/m2
18:54 52.0 °F 41.0 °F 30.33 in East 8.0 mph 19.0 mph 66 % 0.00 in 102 W/m2
18:59 51.6 °F 41.0 °F 30.33 in ENE 10.0 mph 18.0 mph 67 % 0.00 in 206 W/m2
19:04 51.6 °F 41.4 °F 30.33 in ENE 8.0 mph 18.0 mph 68 % 0.00 in 132 W/m2
19:09 51.4 °F 41.2 °F 30.33 in ENE 8.0 mph 18.0 mph 68 % 0.00 in 47 W/m2
19:14 50.9 °F 41.1 °F 30.34 in ENE 8.0 mph 15.0 mph 69 % 0.00 in 35 W/m2
19:19 50.5 °F 41.1 °F 30.34 in East 7.0 mph 15.0 mph 70 % 0.00 in 37 W/m2
19:24 50.0 °F 41.0 °F 30.34 in ENE 8.0 mph 21.0 mph 71 % 0.00 in 37 W/m2
19:29 49.6 °F 41.0 °F 30.34 in ENE 9.0 mph 21.0 mph 72 % 0.00 in 26 W/m2
19:34 49.5 °F 41.2 °F 30.34 in ENE 6.0 mph 15.0 mph 73 % 0.00 in 25 W/m2
19:39 49.5 °F 41.2 °F 30.34 in ENE 6.0 mph 15.0 mph 73 % 0.00 in 19 W/m2
19:44 49.5 °F 41.2 °F 30.34 in ENE 8.0 mph 15.0 mph 73 % 0.00 in 16 W/m2
19:49 49.5 °F 41.2 °F 30.34 in ENE 7.0 mph 16.0 mph 73 % 0.00 in 14 W/m2
19:54 49.5 °F 41.2 °F 30.34 in ENE 6.0 mph 16.0 mph 73 % 0.00 in 14 W/m2
19:59 49.3 °F 41.0 °F 30.34 in ENE 6.0 mph 14.0 mph 73 % 0.00 in 18 W/m2
20:04 49.3 °F 41.0 °F 30.34 in ENE 7.0 mph 15.0 mph 73 % 0.00 in 19 W/m2
20:09 49.1 °F 40.8 °F 30.35 in ENE 7.0 mph 15.0 mph 73 % 0.00 in 19 W/m2
20:14 48.7 °F 40.5 °F 30.35 in ENE 8.0 mph 16.0 mph 73 % 0.00 in 18 W/m2
20:19 48.7 °F 40.5 °F 30.35 in ENE 8.0 mph 16.0 mph 73 % 0.00 in 18 W/m2
20:24 48.6 °F 40.6 °F 30.35 in ENE 6.0 mph 13.0 mph 74 % 0.00 in 14 W/m2
20:29 48.6 °F 40.6 °F 30.35 in ENE 6.0 mph 13.0 mph 74 % 0.00 in 11 W/m2
20:30 48.6 °F 40.6 °F 30.35 in ENE 6.0 mph 13.0 mph 74 % 0.00 in 11 W/m2
20:35 48.6 °F 40.6 °F 30.35 in East 5.0 mph 11.0 mph 74 % 0.00 in 7 W/m2
20:40 48.4 °F 40.8 °F 30.35 in East 5.0 mph 12.0 mph 75 % 0.00 in 5 W/m2
20:45 48.4 °F 40.8 °F 30.36 in East 5.0 mph 12.0 mph 75 % 0.00 in 0 W/m2
20:50 48.2 °F 40.6 °F 30.36 in ENE 6.0 mph 14.0 mph 75 % 0.00 in 0 W/m2
20:55 48.0 °F 40.5 °F 30.36 in ENE 6.0 mph 15.0 mph 75 % 0.00 in 0 W/m2
21:00 47.8 °F 40.6 °F 30.36 in East 5.0 mph 15.0 mph 76 % 0.00 in 0 W/m2
21:05 47.7 °F 40.5 °F 30.36 in ENE 5.0 mph 12.0 mph 76 % 0.00 in 0 W/m2
21:10 47.5 °F 40.3 °F 30.36 in ENE 7.0 mph 14.0 mph 76 % 0.00 in 0 W/m2
21:15 47.1 °F 40.3 °F 30.37 in ENE 7.0 mph 14.0 mph 77 % 0.00 in 0 W/m2
21:20 46.9 °F 40.1 °F 30.36 in ENE 6.0 mph 13.0 mph 77 % 0.00 in 0 W/m2
21:25 46.8 °F 40.3 °F 30.37 in ENE 4.0 mph 13.0 mph 78 % 0.00 in 0 W/m2
21:30 46.6 °F 40.1 °F 30.37 in ENE 3.0 mph 8.0 mph 78 % 0.00 in 0 W/m2
21:36 46.4 °F 39.9 °F 30.37 in ENE 3.0 mph 10.0 mph 78 % 0.00 in 0 W/m2
21:41 46.2 °F 40.1 °F 30.37 in ENE 3.0 mph 10.0 mph 79 % 0.00 in 0 W/m2
21:45 46.0 °F 39.9 °F 30.37 in ENE 3.0 mph 9.0 mph 79 % 0.00 in 0 W/m2
21:50 45.9 °F 40.0 °F 30.37 in ENE 4.0 mph 9.0 mph 80 % 0.00 in 0 W/m2
21:56 45.7 °F 39.9 °F 30.37 in ENE 4.0 mph 9.0 mph 80 % 0.00 in 0 W/m2
22:01 45.7 °F 39.9 °F 30.37 in ENE 5.0 mph 11.0 mph 80 % 0.00 in 0 W/m2
22:06 45.5 °F 40.0 °F 30.37 in ENE 6.0 mph 11.0 mph 81 % 0.00 in 0 W/m2
22:10 45.3 °F 39.8 °F 30.37 in ENE 6.0 mph 11.0 mph 81 % 0.00 in 0 W/m2
22:16 45.3 °F 39.8 °F 30.37 in ENE 5.0 mph 11.0 mph 81 % 0.00 in 0 W/m2
22:21 45.1 °F 40.0 °F 30.37 in ENE 5.0 mph 10.0 mph 82 % 0.00 in 0 W/m2
22:26 45.1 °F 40.0 °F 30.37 in ENE 6.0 mph 10.0 mph 82 % 0.00 in 0 W/m2
22:31 45.0 °F 39.8 °F 30.37 in NE 6.0 mph 11.0 mph 82 % 0.00 in 0 W/m2
22:36 45.0 °F 39.8 °F 30.37 in NE 6.0 mph 12.0 mph 82 % 0.00 in 0 W/m2
22:41 44.8 °F 39.6 °F 30.37 in NE 6.0 mph 13.0 mph 82 % 0.00 in 0 W/m2
22:46 44.8 °F 39.9 °F 30.37 in NE 6.0 mph 13.0 mph 83 % 0.00 in 0 W/m2
22:51 44.6 °F 39.8 °F 30.37 in NE 7.0 mph 12.0 mph 83 % 0.00 in 0 W/m2
22:56 44.4 °F 39.6 °F 30.37 in NE 6.0 mph 12.0 mph 83 % 0.00 in 0 W/m2
23:01 44.4 °F 39.9 °F 30.37 in NE 5.0 mph 13.0 mph 84 % 0.00 in 0 W/m2
23:06 44.2 °F 39.7 °F 30.37 in NE 5.0 mph 13.0 mph 84 % 0.00 in 0 W/m2
23:11 44.2 °F 40.0 °F 30.37 in ENE 5.0 mph 9.0 mph 85 % 0.00 in 0 W/m2
23:16 44.2 °F 40.0 °F 30.38 in ENE 3.0 mph 8.0 mph 85 % 0.00 in 0 W/m2
23:21 44.1 °F 39.8 °F 30.38 in ENE 3.0 mph 8.0 mph 85 % 0.00 in 0 W/m2
23:26 44.1 °F 39.8 °F 30.38 in ENE 4.0 mph 9.0 mph 85 % 0.00 in 0 W/m2
23:31 43.9 °F 40.0 °F 30.38 in ENE 4.0 mph 10.0 mph 86 % 0.00 in 0 W/m2
23:36 43.9 °F 40.0 °F 30.38 in NE 3.0 mph 10.0 mph 86 % 0.00 in 0 W/m2
23:41 43.7 °F 39.8 °F 30.38 in NE 3.0 mph 9.0 mph 86 % 0.00 in 0 W/m2
23:46 43.7 °F 40.1 °F 30.38 in NE 4.0 mph 9.0 mph 87 % 0.00 in 0 W/m2
23:51 43.5 °F 39.9 °F 30.38 in NE 4.0 mph 8.0 mph 87 % 0.00 in 0 W/m2
23:56 43.5 °F 40.2 °F 30.38 in NE 4.0 mph 8.0 mph 88 % 0.00 in 0 W/m2
Delerius-Weather
Compliments of Weather Underground - 2.25 mb

Data updates at regular intervals.